createdAt,value
2024-04-11T00:01:55.591Z,13.60
2024-04-11T00:06:52.032Z,13.60
2024-04-11T00:11:57.472Z,13.60
2024-04-11T00:17:03.062Z,13.60
2024-04-11T00:22:10.160Z,13.60
2024-04-11T00:27:15.480Z,13.60
2024-04-11T00:32:21.167Z,13.60
2024-04-11T00:37:27.101Z,13.50
2024-04-11T00:42:33.376Z,13.50
2024-04-11T00:47:41.345Z,13.50
2024-04-11T00:52:49.182Z,13.50
2024-04-11T00:57:55.055Z,13.50
2024-04-11T01:03:00.586Z,13.50
2024-04-11T01:08:09.056Z,13.50
2024-04-11T01:13:14.362Z,13.50
2024-04-11T01:18:21.500Z,13.40
2024-04-11T01:23:27.368Z,13.40
2024-04-11T01:28:33.248Z,13.40
2024-04-11T01:33:39.514Z,13.40
2024-04-11T01:38:46.753Z,13.40
2024-04-11T01:43:52.144Z,13.40
2024-04-11T01:48:57.547Z,13.50
2024-04-11T01:54:03.084Z,13.40
2024-04-11T01:59:09.565Z,13.30
2024-04-11T02:04:15.472Z,13.30
2024-04-11T02:09:22.506Z,13.40
2024-04-11T02:14:28.637Z,13.30
2024-04-11T02:19:34.145Z,13.30
2024-04-11T02:24:39.753Z,13.30
2024-04-11T02:29:46.724Z,13.30
2024-04-11T02:34:52.918Z,13.40
2024-04-11T02:39:58.560Z,13.40
2024-04-11T02:45:04.303Z,13.30
2024-04-11T02:50:12.916Z,13.30
2024-04-11T02:55:18.826Z,13.30
2024-04-11T03:00:24.289Z,13.30
2024-04-11T03:05:30.923Z,13.30
2024-04-11T03:10:38.467Z,13.30
2024-04-11T03:15:43.895Z,13.20
2024-04-11T03:20:56.327Z,13.20
2024-04-11T03:26:01.944Z,13.20
2024-04-11T03:31:09.759Z,13.10
2024-04-11T03:36:15.535Z,13.10
2024-04-11T03:41:21.641Z,13.10
2024-04-11T03:46:27.300Z,13.10
2024-04-11T03:51:34.675Z,13.00
2024-04-11T03:56:40.792Z,13.00
2024-04-11T04:01:48.284Z,13.00
2024-04-11T04:06:53.977Z,13.00
2024-04-11T04:11:59.626Z,13.00
2024-04-11T04:17:05.174Z,12.90
2024-04-11T04:22:12.122Z,12.90
2024-04-11T04:27:18.481Z,12.90
2024-04-11T04:32:24.185Z,12.90
2024-04-11T04:37:31.724Z,12.90
2024-04-11T04:42:37.178Z,12.80
2024-04-11T04:47:42.747Z,12.80
2024-04-11T04:52:49.687Z,12.80
2024-04-11T04:57:56.422Z,12.70
2024-04-11T05:03:08.620Z,12.70
2024-04-11T05:08:15.973Z,12.70
2024-04-11T05:13:22.948Z,12.70
2024-04-11T05:18:28.775Z,12.80
2024-04-11T05:23:34.487Z,12.80
2024-04-11T05:28:42.339Z,12.90
2024-04-11T05:33:50.072Z,13.00
2024-04-11T05:38:55.961Z,13.10
2024-04-11T05:44:02.374Z,13.10
2024-04-11T05:49:08.335Z,13.10
2024-04-11T05:54:14.300Z,13.20
2024-04-11T05:59:21.241Z,13.30
2024-04-11T06:04:27.411Z,13.40
2024-04-11T06:09:34.840Z,13.40
2024-04-11T06:14:40.502Z,13.40
2024-04-11T06:19:46.551Z,13.40
2024-04-11T06:24:52.074Z,13.40
2024-04-11T06:29:59.121Z,13.60
2024-04-11T06:35:06.047Z,13.60
2024-04-11T06:40:13.987Z,13.60
2024-04-11T06:45:22.104Z,13.70
2024-04-11T06:50:28.048Z,13.90
2024-04-11T06:55:33.562Z,14.00
2024-04-11T07:00:38.968Z,14.00
2024-04-11T07:05:56.694Z,14.10
2024-04-11T07:11:05.742Z,14.20
2024-04-11T07:16:12.899Z,14.30
2024-04-11T07:21:18.962Z,14.40
2024-04-11T07:26:25.213Z,14.60
2024-04-11T07:31:30.911Z,14.80
2024-04-11T07:36:40.756Z,15.00
2024-04-11T07:41:47.537Z,15.20
2024-04-11T07:47:01.694Z,15.30
2024-04-11T07:52:03.022Z,15.30
2024-04-11T07:57:09.653Z,15.40
2024-04-11T08:02:16.366Z,15.60
2024-04-11T08:07:22.213Z,15.80
2024-04-11T08:12:28.767Z,15.70
2024-04-11T08:17:37.844Z,16.00
2024-04-11T08:22:43.691Z,16.10
2024-04-11T08:27:50.247Z,16.20
2024-04-11T08:32:57.228Z,16.40
2024-04-11T08:38:04.545Z,16.20
2024-04-11T08:43:10.712Z,16.10
2024-04-11T08:48:16.956Z,16.10
2024-04-11T08:53:25.423Z,16.10
2024-04-11T08:58:31.092Z,16.10
2024-04-11T09:03:37.834Z,15.90
2024-04-11T09:08:43.366Z,15.80
2024-04-11T09:13:49.013Z,15.80
2024-04-11T09:19:06.170Z,16.00
2024-04-11T09:24:13.934Z,16.00
2024-04-11T09:29:22.333Z,15.90
2024-04-11T09:34:31.336Z,16.10
2024-04-11T09:39:50.106Z,16.20
2024-04-11T09:44:57.299Z,16.30
2024-04-11T09:50:06.734Z,16.40
2024-04-11T09:55:15.165Z,16.50
2024-04-11T10:00:22.254Z,16.50
2024-04-11T10:05:37.595Z,16.70
2024-04-11T10:10:44.230Z,16.70
2024-04-11T10:15:51.129Z,16.60
2024-04-11T10:21:03.148Z,16.70
2024-04-11T10:26:09.493Z,16.90
2024-04-11T10:31:18.322Z,17.00
2024-04-11T10:36:25.669Z,17.10
2024-04-11T10:41:34.253Z,17.20
2024-04-11T10:46:41.555Z,17.30
2024-04-11T10:51:48.379Z,17.40
2024-04-11T10:56:55.806Z,17.40
2024-04-11T11:02:06.843Z,17.50
2024-04-11T11:07:12.233Z,17.60
2024-04-11T11:12:19.592Z,17.70
2024-04-11T11:17:27.050Z,17.60
2024-04-11T11:22:34.702Z,17.60
2024-04-11T11:27:40.593Z,17.60
2024-04-11T11:32:46.121Z,17.60
2024-04-11T11:37:51.918Z,17.70
2024-04-11T11:42:58.559Z,17.70
2024-04-11T11:48:05.787Z,17.80
2024-04-11T11:53:27.021Z,17.90
2024-04-11T11:58:32.440Z,18.00
2024-04-11T12:03:39.733Z,17.90
2024-04-11T12:08:46.986Z,17.80
2024-04-11T12:13:57.208Z,17.90
2024-04-11T12:19:02.962Z,18.00
2024-04-11T12:24:10.439Z,18.00
2024-04-11T12:29:17.465Z,18.00
2024-04-11T12:34:22.918Z,18.00
2024-04-11T12:39:35.454Z,18.00
2024-04-11T12:44:41.164Z,18.50
2024-04-11T12:49:49.431Z,18.40
2024-04-11T12:54:57.421Z,18.20
2024-04-11T13:00:05.850Z,18.10
2024-04-11T13:05:16.074Z,18.50
2024-04-11T13:10:21.620Z,18.30
2024-04-11T13:15:28.579Z,18.00
2024-04-11T13:20:35.852Z,18.30
2024-04-11T13:25:44.174Z,18.80
2024-04-11T13:30:49.708Z,18.50
2024-04-11T13:35:55.295Z,18.30
2024-04-11T13:41:17.533Z,18.20
2024-04-11T13:46:24.742Z,18.00
2024-04-11T13:51:31.686Z,18.00
2024-04-11T13:56:39.971Z,18.00
2024-04-11T14:01:47.239Z,17.90
2024-04-11T14:07:11.952Z,17.80
2024-04-11T14:12:18.421Z,17.70
2024-04-11T14:22:35.672Z,17.70
2024-04-11T14:27:43.000Z,17.70
2024-04-11T14:33:07.356Z,17.60
2024-04-11T14:38:12.693Z,17.50
2024-04-11T14:43:19.542Z,17.50
2024-04-11T14:48:26.670Z,17.50
2024-04-11T14:53:34.375Z,17.60
2024-04-11T14:58:41.458Z,17.50
2024-04-11T15:03:47.156Z,17.50
2024-04-11T15:08:54.177Z,17.50
2024-04-11T15:14:01.159Z,17.40
2024-04-11T15:19:08.020Z,17.40
2024-04-11T15:24:15.307Z,17.40
2024-04-11T15:29:22.955Z,17.30
2024-04-11T15:34:30.221Z,17.30
2024-04-11T15:39:35.681Z,17.30
2024-04-11T15:44:42.763Z,17.30
2024-04-11T15:49:49.774Z,17.20
2024-04-11T15:54:57.577Z,17.20
2024-04-11T16:00:05.060Z,17.20
2024-04-11T16:05:13.395Z,17.20
2024-04-11T16:10:20.258Z,17.10
2024-04-11T16:15:27.219Z,17.10
2024-04-11T16:20:33.107Z,17.10
2024-04-11T16:25:40.550Z,17.10
2024-04-11T16:31:05.643Z,17.10
2024-04-11T16:36:12.695Z,17.00
2024-04-11T16:41:20.393Z,17.00
2024-04-11T16:46:27.717Z,17.00
2024-04-11T16:51:34.762Z,16.90
2024-04-11T16:56:40.693Z,16.80
2024-04-11T17:01:46.288Z,16.80
2024-04-11T17:06:52.010Z,16.80
2024-04-11T17:11:57.686Z,16.70
2024-04-11T17:17:16.048Z,16.60
2024-04-11T17:22:24.666Z,16.50
2024-04-11T17:27:30.062Z,16.50
2024-04-11T17:32:42.281Z,16.40
2024-04-11T17:37:49.930Z,16.30
2024-04-11T17:42:56.954Z,16.30
2024-04-11T17:48:02.678Z,16.20
2024-04-11T17:53:08.543Z,16.20
2024-04-11T17:58:15.558Z,16.20
2024-04-11T18:03:22.027Z,16.20
2024-04-11T18:08:27.651Z,16.20
2024-04-11T18:13:34.976Z,16.10
2024-04-11T18:18:42.367Z,16.00
2024-04-11T18:23:49.626Z,15.90
2024-04-11T18:28:56.731Z,15.80
2024-04-11T18:34:04.123Z,15.70
2024-04-11T18:39:11.253Z,15.60
2024-04-11T18:44:21.395Z,15.60
2024-04-11T18:49:29.446Z,15.50
2024-04-11T18:54:35.379Z,15.40
2024-04-11T18:59:42.457Z,15.30
2024-04-11T19:04:48.159Z,15.10
2024-04-11T19:10:04.681Z,15.00
2024-04-11T19:15:12.233Z,15.00
2024-04-11T19:20:22.753Z,15.00
2024-04-11T19:25:29.561Z,14.80
2024-04-11T19:30:38.173Z,14.80
2024-04-11T19:35:45.937Z,14.80
2024-04-11T19:40:51.524Z,14.60
2024-04-11T19:45:57.144Z,14.40
2024-04-11T19:51:02.673Z,14.40
2024-04-11T19:56:13.777Z,14.30
2024-04-11T20:01:21.581Z,14.20
2024-04-11T20:06:28.590Z,14.20
2024-04-11T20:11:36.151Z,14.20
2024-04-11T20:16:41.879Z,14.20
2024-04-11T20:21:48.869Z,14.10
2024-04-11T20:26:55.102Z,14.10
2024-04-11T20:32:05.810Z,14.00
2024-04-11T20:37:12.809Z,14.00
2024-04-11T20:42:19.758Z,13.90
2024-04-11T20:47:27.069Z,13.80
2024-04-11T20:52:50.543Z,13.70
2024-04-11T20:58:13.966Z,13.50
2024-04-11T21:03:37.148Z,13.40
2024-04-11T21:09:00.687Z,13.20
2024-04-11T21:14:24.089Z,13.10
2024-04-11T21:19:47.505Z,13.00
2024-04-11T21:25:13.732Z,13.00
2024-04-11T21:30:37.525Z,12.90
2024-04-11T21:35:44.678Z,12.80
2024-04-11T21:40:51.601Z,12.90
2024-04-11T21:45:58.607Z,12.70
2024-04-11T21:51:05.688Z,12.60
2024-04-11T21:56:13.644Z,12.50
2024-04-11T22:01:19.682Z,12.50
2024-04-11T22:06:26.340Z,12.40
2024-04-11T22:11:32.709Z,12.40
2024-04-11T22:16:39.168Z,12.50
2024-04-11T22:21:46.154Z,12.50
2024-04-11T22:26:51.580Z,12.40
2024-04-11T22:31:57.016Z,12.40
2024-04-11T22:37:03.032Z,12.50
2024-04-11T22:42:10.726Z,12.30
2024-04-11T22:47:17.866Z,12.30
2024-04-11T22:52:25.347Z,12.20
2024-04-11T22:57:30.775Z,12.10
2024-04-11T23:02:39.481Z,12.00
2024-04-11T23:07:46.509Z,12.00
2024-04-11T23:12:53.526Z,11.80
2024-04-11T23:18:00.902Z,11.60
2024-04-11T23:23:10.472Z,11.60
2024-04-11T23:28:16.059Z,11.60
2024-04-11T23:33:25.443Z,11.60
2024-04-11T23:38:30.888Z,11.60
2024-04-11T23:43:46.428Z,11.50
2024-04-11T23:48:51.851Z,11.40
2024-04-11T23:53:58.396Z,11.40
2024-04-11T23:59:08.285Z,11.40
